createdAt,value
2023-04-18T00:03:59.846Z,1.7
2023-04-18T00:09:05.756Z,1.5
2023-04-18T00:14:17.463Z,1.3
2023-04-18T00:19:29.202Z,1.2
2023-04-18T00:24:35.298Z,1.2
2023-04-18T00:29:41.419Z,1.1
2023-04-18T00:34:47.490Z,1.1
2023-04-18T00:39:53.598Z,1
2023-04-18T00:44:59.652Z,0.9
2023-04-18T00:50:05.771Z,0.9
2023-04-18T00:55:11.864Z,0.9
2023-04-18T01:00:17.950Z,0.9
2023-04-18T01:05:24.144Z,0.7
2023-04-18T01:10:30.171Z,0.7
2023-04-18T01:15:36.301Z,0.7
2023-04-18T01:20:42.355Z,0.8
2023-04-18T01:25:48.494Z,0.7
2023-04-18T01:30:54.585Z,0.6
2023-04-18T01:36:00.643Z,0.6
2023-04-18T01:41:06.735Z,0.6
2023-04-18T01:46:12.824Z,0.5
2023-04-18T01:51:18.874Z,0.6
2023-04-18T01:56:24.992Z,0.5
2023-04-18T02:01:36.717Z,0.4
2023-04-18T02:06:48.455Z,0.5
2023-04-18T02:11:54.533Z,0.5
2023-04-18T02:17:00.643Z,0.5
2023-04-18T02:22:07.029Z,0.2
2023-04-18T02:27:12.842Z,0.2
2023-04-18T02:32:18.954Z,0.1
2023-04-18T02:37:25.021Z,0.1
2023-04-18T02:42:31.108Z,0.1
2023-04-18T02:47:43.716Z,0
2023-04-18T02:52:43.279Z,0.1
2023-04-18T02:57:49.387Z,0
2023-04-18T03:02:55.558Z,0
2023-04-18T03:08:01.566Z,0
2023-04-18T03:13:07.755Z,0
2023-04-18T03:18:13.800Z,-0.1
2023-04-18T03:23:19.856Z,0
2023-04-18T03:28:25.948Z,-0.1
2023-04-18T03:33:32.035Z,-0.1
2023-04-18T03:38:38.121Z,-0.1
2023-04-18T03:43:49.894Z,0
2023-04-18T03:49:01.600Z,0
2023-04-18T03:54:14.534Z,0
2023-04-18T03:59:20.503Z,0
2023-04-18T04:04:26.652Z,0
2023-04-18T04:09:32.689Z,0.1
2023-04-18T04:14:38.764Z,0
2023-04-18T04:19:44.860Z,-0.1
2023-04-18T04:24:50.973Z,0
2023-04-18T04:29:57.068Z,0.1
2023-04-18T04:35:03.187Z,-0.1
2023-04-18T04:40:09.256Z,0
2023-04-18T04:45:15.374Z,0
2023-04-18T04:50:21.456Z,0
2023-04-18T04:55:27.550Z,0
2023-04-18T05:00:33.617Z,0
2023-04-18T05:05:39.709Z,0
2023-04-18T05:10:45.823Z,0.1
2023-04-18T05:15:51.916Z,0.2
2023-04-18T05:20:58.003Z,0.4
2023-04-18T05:26:04.087Z,0.3
2023-04-18T05:31:10.200Z,0.3
2023-04-18T05:36:16.291Z,2.3
2023-04-18T05:41:22.366Z,8.1
2023-04-18T05:46:28.494Z,10.2
2023-04-18T05:51:40.210Z,10.9
2023-04-18T05:56:51.939Z,11.4
2023-04-18T06:02:03.672Z,11.4
2023-04-18T06:07:09.851Z,11.5
2023-04-18T06:12:15.875Z,11.3
2023-04-18T06:17:22.007Z,10
2023-04-18T06:22:28.079Z,11
2023-04-18T06:27:34.159Z,12.2
2023-04-18T06:32:40.304Z,11.9
2023-04-18T06:37:46.335Z,12.1
2023-04-18T06:42:52.437Z,12
2023-04-18T06:47:58.627Z,12.3
2023-04-18T06:53:04.664Z,12.1
2023-04-18T06:58:10.746Z,13.2
2023-04-18T07:03:16.931Z,13.2
2023-04-18T07:08:22.930Z,12.5
2023-04-18T07:13:29.013Z,11.8
2023-04-18T07:18:38.226Z,13.2
2023-04-18T07:23:42.227Z,13.4
2023-04-18T07:28:47.286Z,14
2023-04-18T07:33:53.369Z,14.2
2023-04-18T07:38:59.514Z,12.7
2023-04-18T07:44:11.311Z,13.6
2023-04-18T07:49:18.294Z,12.8
2023-04-18T07:54:23.416Z,12.6
2023-04-18T07:59:29.571Z,13.2
2023-04-18T08:04:35.787Z,13.9
2023-04-18T08:09:41.698Z,13.8
2023-04-18T08:14:47.813Z,13.3
2023-04-18T08:19:53.877Z,12.5
2023-04-18T08:25:04.754Z,11.1
2023-04-18T08:30:06.132Z,11.5
2023-04-18T08:35:12.191Z,12.7
2023-04-18T08:40:18.253Z,11.4
2023-04-18T08:45:24.418Z,8.8
2023-04-18T08:50:30.494Z,7.4
2023-04-18T08:55:36.530Z,7.2
2023-04-18T09:00:42.670Z,7.9
2023-04-18T09:05:48.771Z,7
2023-04-18T09:10:54.842Z,8
2023-04-18T09:16:00.918Z,8.6
2023-04-18T09:21:07.001Z,8
2023-04-18T09:26:18.771Z,8.3
2023-04-18T09:31:24.915Z,8.3
2023-04-18T09:36:30.951Z,8.9
2023-04-18T09:41:37.057Z,8.7
2023-04-18T09:46:45.376Z,8.4
2023-04-18T09:51:49.257Z,9.1
2023-04-18T09:56:55.341Z,8.9
2023-04-18T10:02:01.504Z,9.7
2023-04-18T10:07:07.516Z,9
2023-04-18T10:12:13.606Z,9.5
2023-04-18T10:17:19.732Z,8.8
2023-04-18T10:22:25.788Z,9.3
2023-04-18T10:27:31.894Z,9.3
2023-04-18T10:32:38.002Z,9
2023-04-18T10:37:44.065Z,9.8
2023-04-18T10:42:50.157Z,10.3
2023-04-18T10:47:56.301Z,11
2023-04-18T10:53:03.403Z,10.4
2023-04-18T10:58:08.428Z,10.3
2023-04-18T11:03:14.668Z,10
2023-04-18T11:08:26.261Z,10.6
2023-04-18T11:13:38.029Z,11.1
2023-04-18T11:18:49.754Z,11.1
2023-04-18T11:23:55.827Z,10.4
2023-04-18T11:29:01.947Z,11.1
2023-04-18T11:34:08.054Z,11.1
2023-04-18T11:39:14.114Z,11
2023-04-18T11:44:20.207Z,10.1
2023-04-18T11:49:26.302Z,10.6
2023-04-18T11:54:33.695Z,10.6
2023-04-18T11:59:38.510Z,9.9
2023-04-18T12:04:44.807Z,9.9
2023-04-18T12:09:50.712Z,9.8
2023-04-18T12:14:56.798Z,10.1
2023-04-18T12:20:02.914Z,9.4
2023-04-18T12:25:08.984Z,9.6
2023-04-18T12:30:15.048Z,9.6
2023-04-18T12:35:21.188Z,9.8
2023-04-18T12:40:27.278Z,9.6
2023-04-18T12:45:33.384Z,9.8
2023-04-18T12:50:39.477Z,10.8
2023-04-18T12:55:45.524Z,10.7
2023-04-18T13:00:57.312Z,10.4
2023-04-18T13:06:03.383Z,10.1
2023-04-18T13:11:09.511Z,10.6
2023-04-18T13:16:15.588Z,10.5
2023-04-18T13:21:21.684Z,10.1
2023-04-18T13:26:27.767Z,10.3
2023-04-18T13:31:33.901Z,10.4
2023-04-18T13:36:39.943Z,10.1
2023-04-18T13:41:46.036Z,10
2023-04-18T13:46:52.149Z,9.7
2023-04-18T13:51:58.229Z,10.5
2023-04-18T13:57:04.327Z,10.5
2023-04-18T14:02:10.642Z,10.4
2023-04-18T14:07:16.490Z,10.4
2023-04-18T14:12:22.601Z,10.4
2023-04-18T14:17:28.705Z,10.2
2023-04-18T14:22:34.777Z,9.9
2023-04-18T14:27:40.866Z,9.8
2023-04-18T14:32:46.992Z,9.8
2023-04-18T14:37:54.069Z,9.7
2023-04-18T14:43:04.812Z,9.8
2023-04-18T14:48:16.529Z,9.5
2023-04-18T14:53:22.625Z,9.9
2023-04-18T14:58:28.723Z,9.7
2023-04-18T15:03:34.909Z,9.7
2023-04-18T15:08:40.887Z,9.8
2023-04-18T15:13:46.983Z,10
2023-04-18T15:18:53.092Z,9.6
2023-04-18T15:23:59.196Z,9.3
2023-04-18T15:29:05.294Z,9.2
2023-04-18T15:34:11.455Z,9.3
2023-04-18T15:39:17.492Z,9.2
2023-04-18T15:44:23.598Z,9.1
2023-04-18T15:49:29.645Z,8.9
2023-04-18T15:54:35.752Z,8.8
2023-04-18T15:59:41.839Z,8.7
2023-04-18T16:04:47.998Z,8.7
2023-04-18T16:09:54.039Z,8.7
2023-04-18T16:15:00.160Z,8.7
2023-04-18T16:20:06.425Z,8.6
2023-04-18T16:25:12.353Z,8.6
2023-04-18T16:30:24.061Z,8.3
2023-04-18T16:35:35.858Z,8.3
2023-04-18T16:40:47.506Z,8.5
2023-04-18T16:45:59.253Z,8.2
2023-04-18T16:51:05.335Z,8
2023-04-18T16:56:11.439Z,8
2023-04-18T17:01:17.564Z,7.7
2023-04-18T17:06:23.620Z,7.8
2023-04-18T17:11:29.684Z,7.6
2023-04-18T17:16:35.852Z,7.1
2023-04-18T17:21:41.892Z,6.9
2023-04-18T17:26:48.008Z,6.8
2023-04-18T17:31:54.120Z,6.6
2023-04-18T17:37:00.189Z,6.4
2023-04-18T17:42:06.267Z,6.3
2023-04-18T17:47:12.349Z,6.3
2023-04-18T17:52:18.482Z,6.2
2023-04-18T17:57:24.564Z,6
2023-04-18T18:02:30.786Z,5.8
2023-04-18T18:07:36.759Z,5.6
2023-04-18T18:12:42.845Z,5.3
2023-04-18T18:17:48.946Z,5.1
2023-04-18T18:22:55.031Z,4.8
2023-04-18T18:28:06.767Z,4.6
2023-04-18T18:33:18.491Z,4.4
2023-04-18T18:38:24.573Z,4.3
2023-04-18T18:43:30.678Z,4.2
2023-04-18T18:48:36.796Z,4
2023-04-18T18:53:42.840Z,4
2023-04-18T18:58:48.963Z,4.1
2023-04-18T19:03:55.158Z,3.8
2023-04-18T19:09:06.763Z,3.8
2023-04-18T19:14:12.886Z,3.8
2023-04-18T19:19:19.148Z,3.8
2023-04-18T19:24:25.055Z,3.7
2023-04-18T19:29:32.693Z,3.7
2023-04-18T19:34:37.238Z,3.6
2023-04-18T19:39:43.335Z,3.5
2023-04-18T19:44:49.426Z,3.5
2023-04-18T19:49:55.547Z,3.5
2023-04-18T19:55:01.634Z,3.6
2023-04-18T20:00:07.714Z,3.5
2023-04-18T20:05:14.022Z,3.4
2023-04-18T20:10:19.943Z,3.6
2023-04-18T20:15:31.666Z,3.6
2023-04-18T20:20:43.383Z,3.6
2023-04-18T20:25:49.469Z,3.5
2023-04-18T20:30:55.597Z,3.5
2023-04-18T20:36:01.775Z,3.4
2023-04-18T20:41:07.772Z,3.3
2023-04-18T20:46:13.877Z,3.2
2023-04-18T20:51:19.954Z,3.2
2023-04-18T20:56:26.035Z,3.3
2023-04-18T21:01:32.165Z,3.3
2023-04-18T21:06:38.233Z,3.4
2023-04-18T21:11:44.317Z,3.3
2023-04-18T21:16:50.406Z,3.3
2023-04-18T21:21:56.502Z,3.4
2023-04-18T21:27:02.586Z,3.3
2023-04-18T21:32:08.676Z,3.1
2023-04-18T21:37:14.800Z,3
2023-04-18T21:42:20.864Z,3.1
2023-04-18T21:47:26.957Z,3.1
2023-04-18T21:52:33.075Z,3
2023-04-18T21:57:39.167Z,2.8
2023-04-18T22:02:50.967Z,2.8
2023-04-18T22:07:58.568Z,3
2023-04-18T22:13:03.096Z,2.9
2023-04-18T22:18:09.238Z,3
2023-04-18T22:23:15.281Z,2.8
2023-04-18T22:28:21.373Z,2.8
2023-04-18T22:33:27.454Z,3.1
2023-04-18T22:38:33.553Z,3.2
2023-04-18T22:43:39.646Z,3.2
2023-04-18T22:48:45.740Z,2.9
2023-04-18T22:53:51.810Z,3
2023-04-18T22:58:57.904Z,3.1
2023-04-18T23:04:04.092Z,3
2023-04-18T23:09:10.166Z,2.7
2023-04-18T23:14:16.328Z,2.5
2023-04-18T23:19:22.297Z,2.3
2023-04-18T23:24:28.402Z,2.2
2023-04-18T23:29:34.491Z,2.2
2023-04-18T23:34:40.584Z,2.1
2023-04-18T23:39:46.674Z,2.2
2023-04-18T23:44:58.387Z,2.4
2023-04-18T23:50:10.126Z,2.2
2023-04-18T23:55:21.910Z,2.4
